Time,TemperatureF,DewpointF,PressureIn,WindDirection,WindDirectionDegrees,WindSpeedMPH,WindSpeedGustMPH,Humidity,HourlyPrecipIn,Conditions,Clouds,dailyrainin,SoftwareType,DateUTC
2013-10-03 00:04:00,44.7,43.0,30.15,NW,323,0.0,-999.0,93,-99.99,,,0.00,weatherlink.com 1.10,2013-10-03 04:04:00,
2013-10-03 00:19:00,43.4,42.0,30.15,NW,322,0.0,-999.0,93,-99.99,,,0.00,weatherlink.com 1.10,2013-10-03 04:19:00,
2013-10-03 00:34:00,43.4,42.0,30.15,NW,323,0.0,-999.0,93,-99.99,,,0.00,weatherlink.com 1.10,2013-10-03 04:34:00,
2013-10-03 00:49:00,42.3,41.0,30.15,NW,323,0.0,-999.0,93,-99.99,,,0.00,weatherlink.com 1.10,2013-10-03 04:49:00,
2013-10-03 01:04:00,42.1,41.0,30.15,NW,322,0.0,-999.0,94,-99.99,,,0.00,weatherlink.com 1.10,2013-10-03 05:04:00,
2013-10-03 01:19:00,42.6,41.0,30.15,NW,323,0.0,-999.0,94,-99.99,,,0.00,weatherlink.com 1.10,2013-10-03 05:19:00,
2013-10-03 01:34:00,42.4,41.0,30.14,NW,322,0.0,-999.0,94,-99.99,,,0.00,weatherlink.com 1.10,2013-10-03 05:34:00,
2013-10-03 01:49:00,42.2,41.0,30.15,NW,323,0.0,-999.0,94,-99.99,,,0.00,weatherlink.com 1.10,2013-10-03 05:49:00,
2013-10-03 02:04:00,41.1,40.0,30.15,NW,323,0.0,-999.0,94,-99.99,,,0.00,weatherlink.com 1.10,2013-10-03 06:04:00,
2013-10-03 02:20:00,40.3,39.0,30.15,NW,322,0.0,-999.0,94,-99.99,,,0.00,weatherlink.com 1.10,2013-10-03 06:20:00,
2013-10-03 02:34:00,40.6,39.0,30.15,NW,323,0.0,-999.0,94,-99.99,,,0.00,weatherlink.com 1.10,2013-10-03 06:34:00,
2013-10-03 02:49:00,41.1,40.0,30.14,NW,323,0.0,-999.0,95,-99.99,,,0.00,weatherlink.com 1.10,2013-10-03 06:49:00,
2013-10-03 03:05:00,40.4,39.0,30.15,NW,323,0.0,-999.0,94,-99.99,,,0.00,weatherlink.com 1.10,2013-10-03 07:05:00,
2013-10-03 03:20:00,40.1,39.0,30.14,NW,323,0.0,-999.0,95,-99.99,,,0.00,weatherlink.com 1.10,2013-10-03 07:20:00,
2013-10-03 03:35:00,40.7,39.0,30.14,NW,323,0.0,-999.0,95,-99.99,,,0.00,weatherlink.com 1.10,2013-10-03 07:35:00,
2013-10-03 03:50:00,40.6,39.0,30.14,NW,322,0.0,-999.0,95,-99.99,,,0.00,weatherlink.com 1.10,2013-10-03 07:50:00,
2013-10-03 04:05:00,40.0,39.0,30.14,NW,322,0.0,-999.0,95,-99.99,,,0.00,weatherlink.com 1.10,2013-10-03 08:05:00,
2013-10-03 04:20:00,38.9,38.0,30.15,NW,323,0.0,-999.0,95,-99.99,,,0.00,weatherlink.com 1.10,2013-10-03 08:20:00,
2013-10-03 04:35:00,39.4,38.0,30.16,NW,322,0.0,-999.0,95,-99.99,,,0.00,weatherlink.com 1.10,2013-10-03 08:35:00,
2013-10-03 04:50:00,39.6,38.0,30.16,NW,322,0.0,-999.0,95,-99.99,,,0.00,weatherlink.com 1.10,2013-10-03 08:50:00,
2013-10-03 05:05:00,39.7,38.0,30.15,NW,323,0.0,-999.0,95,-99.99,,,0.00,weatherlink.com 1.10,2013-10-03 09:05:00,
2013-10-03 05:20:00,40.0,39.0,30.16,NW,322,0.0,-999.0,95,-99.99,,,0.00,weatherlink.com 1.10,2013-10-03 09:20:00,
2013-10-03 05:35:00,40.7,40.0,30.16,NW,323,0.0,-999.0,96,-99.99,,,0.00,weatherlink.com 1.10,2013-10-03 09:35:00,
2013-10-03 05:50:00,42.7,42.0,30.16,NW,323,0.0,-999.0,96,-99.99,,,0.00,weatherlink.com 1.10,2013-10-03 09:50:00,
2013-10-03 06:05:00,44.0,43.0,30.16,NW,323,0.0,-999.0,96,-99.99,,,0.00,weatherlink.com 1.10,2013-10-03 10:05:00,
2013-10-03 06:20:00,43.5,43.0,30.16,NW,323,0.0,-999.0,96,-99.99,,,0.00,weatherlink.com 1.10,2013-10-03 10:20:00,
2013-10-03 06:35:00,43.7,43.0,30.16,NW,323,0.0,-999.0,96,-99.99,,,0.00,weatherlink.com 1.10,2013-10-03 10:35:00,
2013-10-03 06:50:00,44.1,43.0,30.16,NW,322,0.0,-999.0,96,-99.99,,,0.00,weatherlink.com 1.10,2013-10-03 10:50:00,
2013-10-03 07:05:00,43.7,43.0,30.17,WSW,240,0.0,-999.0,96,-99.99,,,0.00,weatherlink.com 1.10,2013-10-03 11:05:00,
2013-10-03 07:20:00,43.1,42.0,30.17,WNW,289,0.0,-999.0,96,-99.99,,,0.00,weatherlink.com 1.10,2013-10-03 11:20:00,
2013-10-03 07:35:00,43.6,43.0,30.17,West,277,1.0,-999.0,96,-99.99,,,0.00,weatherlink.com 1.10,2013-10-03 11:35:00,
2013-10-03 07:50:00,43.3,42.0,30.16,NNW,342,0.0,-999.0,96,-99.99,,,0.00,weatherlink.com 1.10,2013-10-03 11:50:00,
2013-10-03 08:05:00,43.9,43.0,30.17,NE,54,3.0,-999.0,96,-99.99,,,0.00,weatherlink.com 1.10,2013-10-03 12:05:00,
2013-10-03 08:20:00,45.9,45.0,30.16,ENE,59,3.0,-999.0,97,-99.99,,,0.00,weatherlink.com 1.10,2013-10-03 12:20:00,
2013-10-03 08:35:00,47.2,46.0,30.16,ENE,63,3.0,-999.0,96,-99.99,,,0.00,weatherlink.com 1.10,2013-10-03 12:35:00,
2013-10-03 08:50:00,49.6,49.0,30.16,ENE,63,0.0,-999.0,96,-99.99,,,0.00,weatherlink.com 1.10,2013-10-03 12:50:00,
2013-10-03 09:05:00,51.6,50.0,30.16,ENE,63,2.0,-999.0,95,-99.99,,,0.00,weatherlink.com 1.10,2013-10-03 13:05:00,
2013-10-03 09:20:00,53.2,51.0,30.15,ENE,63,0.0,-999.0,91,-99.99,,,0.00,weatherlink.com 1.10,2013-10-03 13:20:00,
2013-10-03 09:35:00,54.7,52.0,30.15,ENE,61,3.0,-999.0,90,-99.99,,,0.00,weatherlink.com 1.10,2013-10-03 13:35:00,
2013-10-03 09:50:00,56.0,53.0,30.15,ENE,61,1.0,-999.0,89,-99.99,,,0.00,weatherlink.com 1.10,2013-10-03 13:50:00,
2013-10-03 10:05:00,57.6,54.0,30.15,ENE,61,0.0,-999.0,86,-99.99,,,0.00,weatherlink.com 1.10,2013-10-03 14:05:00,
2013-10-03 10:20:00,60.0,54.0,30.15,ENE,61,0.0,-999.0,81,-99.99,,,0.00,weatherlink.com 1.10,2013-10-03 14:20:00,
2013-10-03 10:35:00,60.3,53.0,30.14,East,82,3.0,-999.0,78,-99.99,,,0.00,weatherlink.com 1.10,2013-10-03 14:35:00,
2013-10-03 10:50:00,60.4,53.0,30.14,NE,55,3.0,-999.0,76,-99.99,,,0.00,weatherlink.com 1.10,2013-10-03 14:50:00,
2013-10-03 11:06:00,59.9,51.0,30.14,East,79,1.0,-999.0,73,-99.99,,,0.00,weatherlink.com 1.10,2013-10-03 15:06:00,
2013-10-03 11:21:00,59.3,51.0,30.14,ENE,76,0.0,-999.0,75,-99.99,,,0.00,weatherlink.com 1.10,2013-10-03 15:21:00,
2013-10-03 11:36:00,59.0,51.0,30.14,ENE,75,0.0,-999.0,75,-99.99,,,0.00,weatherlink.com 1.10,2013-10-03 15:36:00,
2013-10-03 11:51:00,59.0,51.0,30.14,East,91,0.0,-999.0,74,-99.99,,,0.00,weatherlink.com 1.10,2013-10-03 15:51:00,
2013-10-03 12:06:00,59.2,49.0,30.13,East,96,3.0,-999.0,70,-99.99,,,0.00,weatherlink.com 1.10,2013-10-03 16:06:00,
2013-10-03 12:21:00,59.2,51.0,30.13,ESE,103,1.0,-999.0,73,-99.99,,,0.00,weatherlink.com 1.10,2013-10-03 16:21:00,
2013-10-03 12:36:00,59.0,51.0,30.12,East,83,2.0,-999.0,76,-99.99,,,0.00,weatherlink.com 1.10,2013-10-03 16:36:00,
2013-10-03 12:51:00,59.0,51.0,30.12,East,83,1.0,-999.0,76,-99.99,,,0.00,weatherlink.com 1.10,2013-10-03 16:51:00,
2013-10-03 13:06:00,58.6,51.0,30.11,ENE,74,1.0,-999.0,77,-99.99,,,0.00,weatherlink.com 1.10,2013-10-03 17:06:00,
2013-10-03 13:21:00,58.6,51.0,30.11,ENE,76,3.0,-999.0,76,-99.99,,,0.00,weatherlink.com 1.10,2013-10-03 17:21:00,
2013-10-03 13:36:00,59.0,51.0,30.10,East,92,2.0,-999.0,74,-99.99,,,0.00,weatherlink.com 1.10,2013-10-03 17:36:00,
2013-10-03 13:51:00,60.1,50.0,30.10,East,87,3.0,-999.0,70,-99.99,,,0.00,weatherlink.com 1.10,2013-10-03 17:51:00,
2013-10-03 14:06:00,60.7,50.0,30.09,ENE,61,2.0,-999.0,69,-99.99,,,0.00,weatherlink.com 1.10,2013-10-03 18:06:00,
2013-10-03 14:21:00,60.3,51.0,30.10,ESE,115,2.0,-999.0,71,-99.99,,,0.00,weatherlink.com 1.10,2013-10-03 18:21:00,
2013-10-03 14:36:00,60.1,51.0,30.10,SE,132,0.0,-999.0,73,-99.99,,,0.00,weatherlink.com 1.10,2013-10-03 18:36:00,
2013-10-03 14:51:00,59.4,51.0,30.12,East,97,3.0,-999.0,73,-99.99,,,0.00,weatherlink.com 1.10,2013-10-03 18:51:00,
2013-10-03 15:06:00,58.6,51.0,30.11,NE,53,4.0,-999.0,77,-99.99,,,0.01,weatherlink.com 1.10,2013-10-03 19:06:00,
2013-10-03 15:21:00,57.4,51.0,30.12,East,86,3.0,-999.0,80,-99.99,,,0.01,weatherlink.com 1.10,2013-10-03 19:21:00,
2013-10-03 15:36:00,57.2,50.0,30.12,SE,133,3.0,-999.0,78,-99.99,,,0.02,weatherlink.com 1.10,2013-10-03 19:36:00,
2013-10-03 15:51:00,55.5,51.0,30.11,ESE,111,5.0,-999.0,84,-99.99,,,0.04,weatherlink.com 1.10,2013-10-03 19:51:00,
2013-10-03 16:06:00,54.9,52.0,30.11,ESE,123,4.0,-999.0,88,-99.99,,,0.05,weatherlink.com 1.10,2013-10-03 20:06:00,
2013-10-03 16:21:00,54.9,52.0,30.10,ESE,123,7.0,-999.0,90,-99.99,,,0.05,weatherlink.com 1.10,2013-10-03 20:21:00,
2013-10-03 16:36:00,54.9,52.0,30.11,ESE,116,3.0,-999.0,91,-99.99,,,0.05,weatherlink.com 1.10,2013-10-03 20:36:00,
2013-10-03 16:51:00,54.7,51.0,30.10,ESE,113,8.0,-999.0,88,-99.99,,,0.05,weatherlink.com 1.10,2013-10-03 20:51:00,
2013-10-03 17:06:00,54.9,51.0,30.10,ENE,68,6.0,-999.0,87,-99.99,,,0.05,weatherlink.com 1.10,2013-10-03 21:06:00,
2013-10-03 17:21:00,54.9,51.0,30.09,East,93,5.0,-999.0,87,-99.99,,,0.05,weatherlink.com 1.10,2013-10-03 21:21:00,
2013-10-03 17:36:00,55.0,51.0,30.09,ENE,59,9.0,-999.0,87,-99.99,,,0.05,weatherlink.com 1.10,2013-10-03 21:36:00,
2013-10-03 17:51:00,54.8,51.0,30.09,ENE,65,3.0,-999.0,88,-99.99,,,0.05,weatherlink.com 1.10,2013-10-03 21:51:00,
2013-10-03 18:21:00,55.6,52.0,30.09,East,88,4.0,-999.0,87,-99.99,,,0.05,weatherlink.com 1.10,2013-10-03 22:21:00,
2013-10-03 18:36:00,55.7,52.0,30.10,East,79,7.0,-999.0,86,-99.99,,,0.05,weatherlink.com 1.10,2013-10-03 22:36:00,
2013-10-03 18:51:00,55.8,51.0,30.11,East,92,4.0,-999.0,85,-99.99,,,0.05,weatherlink.com 1.10,2013-10-03 22:51:00,
2013-10-03 19:06:00,55.8,51.0,30.10,ENE,61,4.0,-999.0,85,-99.99,,,0.05,weatherlink.com 1.10,2013-10-03 23:06:00,
2013-10-03 19:36:00,55.7,50.0,30.11,East,92,5.0,-999.0,82,-99.99,,,0.05,weatherlink.com 1.10,2013-10-03 23:36:00,
2013-10-03 19:51:00,56.0,50.0,30.11,East,79,9.0,-999.0,81,-99.99,,,0.05,weatherlink.com 1.10,2013-10-03 23:51:00,
2013-10-03 20:06:00,56.2,50.0,30.10,ESE,110,4.0,-999.0,79,-99.99,,,0.05,weatherlink.com 1.10,2013-10-04 00:06:00,
2013-10-03 20:21:00,56.3,50.0,30.10,ENE,60,10.0,-999.0,78,-99.99,,,0.05,weatherlink.com 1.10,2013-10-04 00:21:00,
2013-10-03 20:36:00,56.3,49.0,30.09,ENE,61,9.0,-999.0,77,-99.99,,,0.05,weatherlink.com 1.10,2013-10-04 00:36:00,
2013-10-03 20:51:00,56.4,49.0,30.09,ENE,71,4.0,-999.0,77,-99.99,,,0.05,weatherlink.com 1.10,2013-10-04 00:51:00,
2013-10-03 21:06:00,56.4,49.0,30.09,ENE,64,6.0,-999.0,77,-99.99,,,0.05,weatherlink.com 1.10,2013-10-04 01:06:00,
2013-10-03 21:21:00,56.4,50.0,30.09,ENE,78,4.0,-999.0,78,-99.99,,,0.05,weatherlink.com 1.10,2013-10-04 01:21:00,
2013-10-03 21:36:00,56.5,49.0,30.09,ENE,65,6.0,-999.0,77,-99.99,,,0.05,weatherlink.com 1.10,2013-10-04 01:36:00,
2013-10-03 21:51:00,56.6,50.0,30.09,ENE,74,5.0,-999.0,78,-99.99,,,0.05,weatherlink.com 1.10,2013-10-04 01:51:00,
2013-10-03 22:06:00,56.6,50.0,30.09,ENE,78,8.0,-999.0,78,-99.99,,,0.05,weatherlink.com 1.10,2013-10-04 02:06:00,
2013-10-03 22:21:00,56.6,50.0,30.09,ENE,68,4.0,-999.0,78,-99.99,,,0.05,weatherlink.com 1.10,2013-10-04 02:21:00,
2013-10-03 22:36:00,56.5,50.0,30.09,ENE,57,4.0,-999.0,78,-99.99,,,0.05,weatherlink.com 1.10,2013-10-04 02:36:00,
2013-10-03 22:51:00,56.4,50.0,30.09,ENE,64,3.0,-999.0,79,-99.99,,,0.05,weatherlink.com 1.10,2013-10-04 02:51:00,
2013-10-03 23:06:00,56.4,50.0,30.09,East,80,1.0,-999.0,80,-99.99,,,0.05,weatherlink.com 1.10,2013-10-04 03:06:00,
2013-10-03 23:21:00,56.6,51.0,30.08,ENE,75,0.0,-999.0,80,-99.99,,,0.05,weatherlink.com 1.10,2013-10-04 03:21:00,
2013-10-03 23:36:00,56.6,51.0,30.08,ENE,72,3.0,-999.0,81,-99.99,,,0.05,weatherlink.com 1.10,2013-10-04 03:36:00,
2013-10-03 23:51:00,56.7,51.0,30.08,ENE,78,0.0,-999.0,81,-99.99,,,0.05,weatherlink.com 1.10,2013-10-04 03:51:00,